Saturday, July 21, 2018, 12:21 AM GMT
Back to Local

CYOY, Valcartier Airport

Location: , , Canada Lat: 46.9
Local Time: 12:21 AM GMT ( 0:21 GMT) Lon: -71.5
Time Zone: GMT Elev: 551 ft

Show me the last for .
Show Decoded

2018-07-21 00:00 METAR CYOY 210000Z AUTO 31003KT 260V320 9SM CLR 25/16 A3009 RMK SLP191 =
2018-07-20 23:00 METAR CYOY 202300Z AUTO 22004KT 160V300 9SM CLR 28/15 A3009 RMK SLP190 =
2018-07-20 22:00 METAR CYOY 202200Z AUTO 22003KT 180V300 9SM CLR 29/15 A3009 RMK SLP191 =
2018-07-20 21:00 METAR CYOY 202100Z AUTO 26006KT 170V290 9SM CLR 29/15 A3010 RMK SLP194 =
2018-07-20 20:00 METAR CYOY 202000Z AUTO 21003KT 9SM CLR 28/14 A3011 RMK SLP196 =
2018-07-20 19:00 METAR CYOY 201900Z 24008KT 15SM SCT240 28/14 A3012 RMK CI4 DA2180FT LAST STFD
                 OBS/NEXT 231700 UTC SLP202 =
2018-07-20 18:00 METAR CYOY 201800Z 22006KT 15SM SCT240 28/14 A3014 RMK CI4 DA2130FT SLP206 =
2018-07-20 17:00 METAR CYOY 201700Z CCA 27007KT 15SM SCT240 27/13 A3014 RMK CI4 DA2010FT SLP210 =
2018-07-20 16:00 METAR CYOY 201600Z 22005KT 15SM BKN240 26/15 A3015 RMK CI6 DA1896FT SLP213 =
2018-07-20 15:00 METAR CYOY 201500Z 24006KT 150V270 15SM SCT240 24/15 A3016 RMK CI4 DA1698FT
                 SLP214 =
2018-07-20 14:00 METAR CYOY 201400Z 21005KT 160V310 15SM SCT240 23/15 A3016 RMK CI3 DA1549FT
                 SLP215 =
2018-07-20 13:00 METAR CYOY 201300Z CCA 18002KT 15SM SCT240 21/15 A3016 RMK CI3 DA1341FT FST STFD
                 OBS SLP214 =
2018-07-20 12:00 METAR CYOY 201200Z AUTO 33002KT 9SM CLR 18/14 A3016 RMK SLP213 =
2018-07-20 11:00 METAR CYOY 201100Z AUTO 33002KT 9SM CLR 15/14 A3015 RMK SLP210 =
2018-07-20 10:00 METAR CYOY 201000Z AUTO 36002KT 9SM CLR 13/12 A3013 RMK SLP203 =
2018-07-20 09:00 METAR CYOY 200900Z AUTO 00000KT 9SM CLR 11/10 A3011 RMK SLP199 =
2018-07-20 08:00 METAR CYOY 200800Z AUTO 33002KT 9SM CLR 12/11 A3009 RMK SLP193 =
2018-07-20 07:00 METAR CYOY 200700Z AUTO 00000KT 9SM CLR 12/11 A3009 RMK SLP191 =
2018-07-20 06:00 METAR CYOY 200600Z AUTO 01002KT 9SM CLR 13/12 A3008 RMK SLP188 =
2018-07-20 05:00 METAR CYOY 200500Z AUTO 00000KT 9SM CLR 13/12 A3008 RMK SLP190 =
2018-07-20 04:00 METAR CYOY 200400Z AUTO 00000KT 9SM CLR 14/13 A3008 RMK SLP187 =
2018-07-20 03:00 METAR CYOY 200300Z 00000KT 15SM FEW250 15/13 A3006 RMK CI2 DA658FT LAST STFD
                 OBS/NEXT 201300 UTC SLP183 =
2018-07-20 02:00 METAR CYOY 200200Z 00000KT 15SM FEW075 SCT250 16/13 A3006 RMK AC1CI3 DA806FT AC
                 TR SLP181 =
2018-07-20 01:00 METAR CYOY 200100Z 00000KT 15SM FEW070 SCT250 18/13 A3004 RMK AC1CI4 DA1056FT AC
                 TR SLP175 =

Support USWX by starting your Amazon purchase here.